sensor_id;sensor_type;location;lat;lon;timestamp;temperature;humidity
51175;DHT22;37240;50.104;20.010;2023-02-15T00:00:27;7.70;99.60
51175;DHT22;37240;50.104;20.010;2023-02-15T00:05:30;7.70;99.80
51175;DHT22;37240;50.104;20.010;2023-02-15T00:10:31;7.70;99.60
51175;DHT22;37240;50.104;20.010;2023-02-15T00:15:31;7.70;99.50
51175;DHT22;37240;50.104;20.010;2023-02-15T00:20:32;7.70;99.60
51175;DHT22;37240;50.104;20.010;2023-02-15T00:25:32;7.70;99.70
51175;DHT22;37240;50.104;20.010;2023-02-15T00:30:33;7.70;99.70
51175;DHT22;37240;50.104;20.010;2023-02-15T00:35:33;7.60;99.90
51175;DHT22;37240;50.104;20.010;2023-02-15T00:40:34;7.60;99.90
51175;DHT22;37240;50.104;20.010;2023-02-15T00:45:34;7.60;99.80
51175;DHT22;37240;50.104;20.010;2023-02-15T00:50:35;7.60;99.80
51175;DHT22;37240;50.104;20.010;2023-02-15T00:55:36;7.60;99.60
51175;DHT22;37240;50.104;20.010;2023-02-15T01:00:37;7.60;99.60
51175;DHT22;37240;50.104;20.010;2023-02-15T01:05:38;7.70;99.60
51175;DHT22;37240;50.104;20.010;2023-02-15T01:10:39;7.60;99.50
51175;DHT22;37240;50.104;20.010;2023-02-15T01:15:40;7.60;99.30
51175;DHT22;37240;50.104;20.010;2023-02-15T01:20:40;7.60;99.30
51175;DHT22;37240;50.104;20.010;2023-02-15T01:25:41;7.50;99.60
51175;DHT22;37240;50.104;20.010;2023-02-15T01:30:41;7.50;99.70
51175;DHT22;37240;50.104;20.010;2023-02-15T01:35:42;7.50;99.90
51175;DHT22;37240;50.104;20.010;2023-02-15T01:40:42;7.50;99.90
51175;DHT22;37240;50.104;20.010;2023-02-15T01:45:46;7.50;99.90
51175;DHT22;37240;50.104;20.010;2023-02-15T01:50:59;7.50;99.90
51175;DHT22;37240;50.104;20.010;2023-02-15T01:56:09;7.50;99.90
51175;DHT22;37240;50.104;20.010;2023-02-15T02:01:10;7.40;99.90
51175;DHT22;37240;50.104;20.010;2023-02-15T02:06:10;7.40;99.90
51175;DHT22;37240;50.104;20.010;2023-02-15T02:11:12;7.30;99.90
51175;DHT22;37240;50.104;20.010;2023-02-15T02:17:04;7.30;99.90
51175;DHT22;37240;50.104;20.010;2023-02-15T02:27:41;7.30;99.90
51175;DHT22;37240;50.104;20.010;2023-02-15T02:48:14;7.30;99.90
51175;DHT22;37240;50.104;20.010;2023-02-15T02:53:15;7.20;99.90
51175;DHT22;37240;50.104;20.010;2023-02-15T02:58:20;7.20;99.90
51175;DHT22;37240;50.104;20.010;2023-02-15T03:03:25;7.10;99.90
51175;DHT22;37240;50.104;20.010;2023-02-15T03:08:36;7.10;99.90
51175;DHT22;37240;50.104;20.010;2023-02-15T03:13:37;7.10;99.90
51175;DHT22;37240;50.104;20.010;2023-02-15T03:18:46;7.10;99.90
51175;DHT22;37240;50.104;20.010;2023-02-15T03:23:53;7.00;99.90
51175;DHT22;37240;50.104;20.010;2023-02-15T03:28:56;6.90;99.90
51175;DHT22;37240;50.104;20.010;2023-02-15T03:34:02;6.90;99.90
51175;DHT22;37240;50.104;20.010;2023-02-15T03:39:37;6.90;99.90
51175;DHT22;37240;50.104;20.010;2023-02-15T03:44:51;6.90;99.90
51175;DHT22;37240;50.104;20.010;2023-02-15T03:50:02;6.80;99.90
51175;DHT22;37240;50.104;20.010;2023-02-15T03:55:04;6.80;99.90
51175;DHT22;37240;50.104;20.010;2023-02-15T04:00:22;6.80;99.90
51175;DHT22;37240;50.104;20.010;2023-02-15T04:05:23;6.80;99.90
51175;DHT22;37240;50.104;20.010;2023-02-15T04:10:24;6.80;99.90
51175;DHT22;37240;50.104;20.010;2023-02-15T04:15:24;6.80;99.90
51175;DHT22;37240;50.104;20.010;2023-02-15T04:20:25;6.80;99.90
51175;DHT22;37240;50.104;20.010;2023-02-15T04:25:25;6.70;99.90
51175;DHT22;37240;50.104;20.010;2023-02-15T04:30:26;6.70;99.90
51175;DHT22;37240;50.104;20.010;2023-02-15T04:35:27;6.60;99.90
51175;DHT22;37240;50.104;20.010;2023-02-15T04:40:28;6.60;99.90
51175;DHT22;37240;50.104;20.010;2023-02-15T04:45:29;6.70;99.90
51175;DHT22;37240;50.104;20.010;2023-02-15T04:50:29;6.60;99.90
51175;DHT22;37240;50.104;20.010;2023-02-15T04:55:30;6.70;99.90
51175;DHT22;37240;50.104;20.010;2023-02-15T05:00:30;6.70;99.90
51175;DHT22;37240;50.104;20.010;2023-02-15T05:05:31;6.60;99.90
51175;DHT22;37240;50.104;20.010;2023-02-15T05:10:31;6.70;99.90
51175;DHT22;37240;50.104;20.010;2023-02-15T05:15:32;6.50;99.90
51175;DHT22;37240;50.104;20.010;2023-02-15T05:20:33;6.60;99.90
51175;DHT22;37240;50.104;20.010;2023-02-15T05:25:34;6.60;99.90
51175;DHT22;37240;50.104;20.010;2023-02-15T05:30:34;6.60;99.90
51175;DHT22;37240;50.104;20.010;2023-02-15T05:35:35;6.60;99.90
51175;DHT22;37240;50.104;20.010;2023-02-15T05:40:35;6.50;99.90
51175;DHT22;37240;50.104;20.010;2023-02-15T05:45:36;6.50;99.90
51175;DHT22;37240;50.104;20.010;2023-02-15T05:50:36;6.40;99.90
51175;DHT22;37240;50.104;20.010;2023-02-15T05:55:41;6.60;99.90
51175;DHT22;37240;50.104;20.010;2023-02-15T06:00:41;6.50;99.90
51175;DHT22;37240;50.104;20.010;2023-02-15T06:05:42;6.40;99.90
51175;DHT22;37240;50.104;20.010;2023-02-15T06:10:42;6.60;99.90
51175;DHT22;37240;50.104;20.010;2023-02-15T06:15:43;6.60;99.90
51175;DHT22;37240;50.104;20.010;2023-02-15T06:20:47;6.50;99.90
51175;DHT22;37240;50.104;20.010;2023-02-15T06:25:47;6.40;99.90
51175;DHT22;37240;50.104;20.010;2023-02-15T06:30:48;6.30;99.90
51175;DHT22;37240;50.104;20.010;2023-02-15T06:35:48;6.40;99.90
51175;DHT22;37240;50.104;20.010;2023-02-15T06:40:49;6.40;99.90
51175;DHT22;37240;50.104;20.010;2023-02-15T06:45:49;6.30;99.90
51175;DHT22;37240;50.104;20.010;2023-02-15T06:50:50;6.20;99.90
51175;DHT22;37240;50.104;20.010;2023-02-15T06:55:50;6.30;99.90
51175;DHT22;37240;50.104;20.010;2023-02-15T07:00:51;6.30;99.90
51175;DHT22;37240;50.104;20.010;2023-02-15T07:05:56;6.30;99.90
51175;DHT22;37240;50.104;20.010;2023-02-15T07:10:57;6.40;99.90
51175;DHT22;37240;50.104;20.010;2023-02-15T07:15:57;6.40;99.90
51175;DHT22;37240;50.104;20.010;2023-02-15T07:20:58;6.60;99.90
51175;DHT22;37240;50.104;20.010;2023-02-15T07:25:59;6.50;99.90
51175;DHT22;37240;50.104;20.010;2023-02-15T07:31:04;6.60;99.90
51175;DHT22;37240;50.104;20.010;2023-02-15T07:36:05;6.60;99.90
51175;DHT22;37240;50.104;20.010;2023-02-15T07:41:10;6.80;99.90
51175;DHT22;37240;50.104;20.010;2023-02-15T07:46:13;7.00;99.90
51175;DHT22;37240;50.104;20.010;2023-02-15T07:51:14;6.90;99.90
51175;DHT22;37240;50.104;20.010;2023-02-15T07:56:15;6.80;99.90
51175;DHT22;37240;50.104;20.010;2023-02-15T08:01:15;6.90;99.90
51175;DHT22;37240;50.104;20.010;2023-02-15T08:06:16;6.90;99.90
51175;DHT22;37240;50.104;20.010;2023-02-15T08:11:20;6.90;99.90
51175;DHT22;37240;50.104;20.010;2023-02-15T08:16:25;7.00;99.90
51175;DHT22;37240;50.104;20.010;2023-02-15T08:21:28;7.10;99.90
51175;DHT22;37240;50.104;20.010;2023-02-15T08:26:30;7.20;99.90
51175;DHT22;37240;50.104;20.010;2023-02-15T08:31:30;7.20;99.90
51175;DHT22;37240;50.104;20.010;2023-02-15T08:36:31;7.20;99.90
51175;DHT22;37240;50.104;20.010;2023-02-15T08:41:36;7.20;99.90
51175;DHT22;37240;50.104;20.010;2023-02-15T08:46:40;7.30;99.90
51175;DHT22;37240;50.104;20.010;2023-02-15T08:51:41;7.50;99.90
51175;DHT22;37240;50.104;20.010;2023-02-15T08:56:43;7.50;99.90
51175;DHT22;37240;50.104;20.010;2023-02-15T09:01:46;7.50;99.90
51175;DHT22;37240;50.104;20.010;2023-02-15T09:06:48;7.50;99.90
51175;DHT22;37240;50.104;20.010;2023-02-15T09:11:51;7.60;99.90
51175;DHT22;37240;50.104;20.010;2023-02-15T09:16:52;7.80;99.90
51175;DHT22;37240;50.104;20.010;2023-02-15T09:21:53;7.70;99.90
51175;DHT22;37240;50.104;20.010;2023-02-15T09:26:53;7.70;99.90
51175;DHT22;37240;50.104;20.010;2023-02-15T09:31:54;7.90;99.60
51175;DHT22;37240;50.104;20.010;2023-02-15T09:36:55;8.00;99.10
51175;DHT22;37240;50.104;20.010;2023-02-15T09:42:38;8.20;99.40
51175;DHT22;37240;50.104;20.010;2023-02-15T09:48:13;8.60;98.30
51175;DHT22;37240;50.104;20.010;2023-02-15T10:26:15;9.40;96.80
51175;DHT22;37240;50.104;20.010;2023-02-15T10:31:24;9.50;96.40
51175;DHT22;37240;50.104;20.010;2023-02-15T10:57:44;9.20;97.60
51175;DHT22;37240;50.104;20.010;2023-02-15T11:08:13;8.90;98.40
51175;DHT22;37240;50.104;20.010;2023-02-15T11:13:19;9.00;98.50
51175;DHT22;37240;50.104;20.010;2023-02-15T11:23:28;8.80;99.10
51175;DHT22;37240;50.104;20.010;2023-02-15T11:29:02;8.70;99.70
51175;DHT22;37240;50.104;20.010;2023-02-15T11:34:11;8.90;99.50
51175;DHT22;37240;50.104;20.010;2023-02-15T11:39:17;8.90;99.60
51175;DHT22;37240;50.104;20.010;2023-02-15T11:44:35;8.80;99.70
51175;DHT22;37240;50.104;20.010;2023-02-15T11:49:38;8.80;99.90
51175;DHT22;37240;50.104;20.010;2023-02-15T11:54:51;8.80;99.90
51175;DHT22;37240;50.104;20.010;2023-02-15T12:00:54;8.80;99.90
51175;DHT22;37240;50.104;20.010;2023-02-15T12:05:37;8.80;99.90
51175;DHT22;37240;50.104;20.010;2023-02-15T12:11:05;8.80;99.90
51175;DHT22;37240;50.104;20.010;2023-02-15T12:16:11;8.80;99.90
51175;DHT22;37240;50.104;20.010;2023-02-15T12:21:15;8.80;99.90
51175;DHT22;37240;50.104;20.010;2023-02-15T12:26:36;8.90;99.90
51175;DHT22;37240;50.104;20.010;2023-02-15T12:31:40;9.00;99.90
51175;DHT22;37240;50.104;20.010;2023-02-15T12:36:48;9.00;99.90
51175;DHT22;37240;50.104;20.010;2023-02-15T12:46:57;9.10;99.90
51175;DHT22;37240;50.104;20.010;2023-02-15T12:52:00;9.10;99.90
51175;DHT22;37240;50.104;20.010;2023-02-15T12:57:26;9.30;99.90
51175;DHT22;37240;50.104;20.010;2023-02-15T13:07:30;9.40;99.80
51175;DHT22;37240;50.104;20.010;2023-02-15T13:12:31;9.30;99.90
51175;DHT22;37240;50.104;20.010;2023-02-15T13:17:32;9.30;99.90
51175;DHT22;37240;50.104;20.010;2023-02-15T13:22:45;9.40;99.90
51175;DHT22;37240;50.104;20.010;2023-02-15T13:27:52;9.50;99.80
51175;DHT22;37240;50.104;20.010;2023-02-15T13:33:23;9.40;99.70
51175;DHT22;37240;50.104;20.010;2023-02-15T14:00:15;9.40;99.90
51175;DHT22;37240;50.104;20.010;2023-02-15T14:06:12;9.50;99.90
51175;DHT22;37240;50.104;20.010;2023-02-15T14:11:26;9.50;99.90
51175;DHT22;37240;50.104;20.010;2023-02-15T14:32:03;9.60;99.90
51175;DHT22;37240;50.104;20.010;2023-02-15T14:37:05;9.60;99.90
51175;DHT22;37240;50.104;20.010;2023-02-15T14:47:19;9.50;99.90
51175;DHT22;37240;50.104;20.010;2023-02-15T14:52:22;9.50;99.90
51175;DHT22;37240;50.104;20.010;2023-02-15T14:57:24;9.50;99.90
51175;DHT22;37240;50.104;20.010;2023-02-15T15:07:37;9.50;99.90
51175;DHT22;37240;50.104;20.010;2023-02-15T15:12:38;9.50;99.90
51175;DHT22;37240;50.104;20.010;2023-02-15T15:22:41;9.60;99.90
51175;DHT22;37240;50.104;20.010;2023-02-15T15:27:51;9.60;99.90
51175;DHT22;37240;50.104;20.010;2023-02-15T15:48:36;9.30;99.90
51175;DHT22;37240;50.104;20.010;2023-02-15T15:53:46;9.30;99.90
51175;DHT22;37240;50.104;20.010;2023-02-15T15:58:52;9.20;99.90
51175;DHT22;37240;50.104;20.010;2023-02-15T16:03:56;9.10;99.90
51175;DHT22;37240;50.104;20.010;2023-02-15T16:09:08;8.90;99.90
51175;DHT22;37240;50.104;20.010;2023-02-15T16:14:18;8.80;99.90
51175;DHT22;37240;50.104;20.010;2023-02-15T16:19:27;8.60;99.90
51175;DHT22;37240;50.104;20.010;2023-02-15T16:29:57;8.40;99.90
51175;DHT22;37240;50.104;20.010;2023-02-15T16:35:00;8.40;99.90
51175;DHT22;37240;50.104;20.010;2023-02-15T16:40:01;8.40;99.90
51175;DHT22;37240;50.104;20.010;2023-02-15T16:45:08;8.20;99.90
51175;DHT22;37240;50.104;20.010;2023-02-15T16:50:27;8.20;99.90
51175;DHT22;37240;50.104;20.010;2023-02-15T16:55:34;8.20;99.90
51175;DHT22;37240;50.104;20.010;2023-02-15T17:00:37;8.10;99.90
51175;DHT22;37240;50.104;20.010;2023-02-15T17:11:18;8.00;99.90
51175;DHT22;37240;50.104;20.010;2023-02-15T17:16:43;7.90;99.90
51175;DHT22;37240;50.104;20.010;2023-02-15T17:21:54;7.80;99.90
51175;DHT22;37240;50.104;20.010;2023-02-15T17:26:57;7.90;99.90
51175;DHT22;37240;50.104;20.010;2023-02-15T17:31:58;7.90;99.90
51175;DHT22;37240;50.104;20.010;2023-02-15T17:36:59;7.80;99.90
51175;DHT22;37240;50.104;20.010;2023-02-15T17:42:00;7.80;99.90
51175;DHT22;37240;50.104;20.010;2023-02-15T17:47:00;7.70;99.90
51175;DHT22;37240;50.104;20.010;2023-02-15T17:52:01;7.70;99.90
51175;DHT22;37240;50.104;20.010;2023-02-15T17:57:02;7.70;99.90
51175;DHT22;37240;50.104;20.010;2023-02-15T18:02:08;7.70;99.90
51175;DHT22;37240;50.104;20.010;2023-02-15T18:07:12;7.50;99.90
51175;DHT22;37240;50.104;20.010;2023-02-15T18:12:33;7.40;99.90
51175;DHT22;37240;50.104;20.010;2023-02-15T18:17:39;7.30;99.90
51175;DHT22;37240;50.104;20.010;2023-02-15T18:22:41;7.20;99.90
51175;DHT22;37240;50.104;20.010;2023-02-15T18:27:42;7.20;99.90
51175;DHT22;37240;50.104;20.010;2023-02-15T18:32:44;7.20;99.90
51175;DHT22;37240;50.104;20.010;2023-02-15T18:37:46;7.20;99.90
51175;DHT22;37240;50.104;20.010;2023-02-15T18:42:47;7.20;99.90
51175;DHT22;37240;50.104;20.010;2023-02-15T18:47:48;7.10;99.90
51175;DHT22;37240;50.104;20.010;2023-02-15T18:52:49;7.10;99.90
51175;DHT22;37240;50.104;20.010;2023-02-15T18:57:52;7.10;99.90
51175;DHT22;37240;50.104;20.010;2023-02-15T19:02:54;7.10;99.90
51175;DHT22;37240;50.104;20.010;2023-02-15T19:07:56;7.10;99.90
51175;DHT22;37240;50.104;20.010;2023-02-15T19:12:57;7.10;99.90
51175;DHT22;37240;50.104;20.010;2023-02-15T19:17:57;7.10;99.90
51175;DHT22;37240;50.104;20.010;2023-02-15T19:22:58;7.10;99.90
51175;DHT22;37240;50.104;20.010;2023-02-15T19:28:00;7.00;99.90
51175;DHT22;37240;50.104;20.010;2023-02-15T19:33:04;7.00;99.90
51175;DHT22;37240;50.104;20.010;2023-02-15T19:38:10;7.10;99.90
51175;DHT22;37240;50.104;20.010;2023-02-15T19:43:19;7.00;99.90
51175;DHT22;37240;50.104;20.010;2023-02-15T19:48:20;6.90;99.90
51175;DHT22;37240;50.104;20.010;2023-02-15T19:53:23;6.90;99.90
51175;DHT22;37240;50.104;20.010;2023-02-15T19:58:24;6.80;99.90
51175;DHT22;37240;50.104;20.010;2023-02-15T20:03:24;6.80;99.90
51175;DHT22;37240;50.104;20.010;2023-02-15T20:08:25;6.70;99.90
51175;DHT22;37240;50.104;20.010;2023-02-15T20:13:26;6.60;99.90
51175;DHT22;37240;50.104;20.010;2023-02-15T20:18:26;6.50;99.90
51175;DHT22;37240;50.104;20.010;2023-02-15T20:23:33;6.50;99.90
51175;DHT22;37240;50.104;20.010;2023-02-15T20:28:35;6.40;99.90
51175;DHT22;37240;50.104;20.010;2023-02-15T20:33:35;6.30;99.90
51175;DHT22;37240;50.104;20.010;2023-02-15T20:38:36;6.30;99.90
51175;DHT22;37240;50.104;20.010;2023-02-15T20:43:37;6.30;99.90
51175;DHT22;37240;50.104;20.010;2023-02-15T20:48:37;6.30;99.90
51175;DHT22;37240;50.104;20.010;2023-02-15T20:53:38;6.30;99.90
51175;DHT22;37240;50.104;20.010;2023-02-15T20:58:38;6.30;99.90
51175;DHT22;37240;50.104;20.010;2023-02-15T21:03:39;6.20;99.90
51175;DHT22;37240;50.104;20.010;2023-02-15T21:08:40;6.30;99.90
51175;DHT22;37240;50.104;20.010;2023-02-15T21:13:40;6.20;99.90
51175;DHT22;37240;50.104;20.010;2023-02-15T21:18:41;6.20;99.90
51175;DHT22;37240;50.104;20.010;2023-02-15T21:23:42;6.10;99.90
51175;DHT22;37240;50.104;20.010;2023-02-15T21:28:43;5.90;99.90
51175;DHT22;37240;50.104;20.010;2023-02-15T21:33:44;5.70;99.90
51175;DHT22;37240;50.104;20.010;2023-02-15T21:38:45;5.60;99.90
51175;DHT22;37240;50.104;20.010;2023-02-15T21:43:45;5.50;99.90
51175;DHT22;37240;50.104;20.010;2023-02-15T21:48:46;5.40;99.90
51175;DHT22;37240;50.104;20.010;2023-02-15T21:53:47;5.30;99.90
51175;DHT22;37240;50.104;20.010;2023-02-15T21:58:48;5.30;99.90
51175;DHT22;37240;50.104;20.010;2023-02-15T22:03:49;5.20;99.90
51175;DHT22;37240;50.104;20.010;2023-02-15T22:08:50;5.20;99.90
51175;DHT22;37240;50.104;20.010;2023-02-15T22:13:50;5.10;99.90
51175;DHT22;37240;50.104;20.010;2023-02-15T22:18:51;5.00;99.90
51175;DHT22;37240;50.104;20.010;2023-02-15T22:23:51;5.00;99.90
51175;DHT22;37240;50.104;20.010;2023-02-15T22:28:52;4.90;99.90
51175;DHT22;37240;50.104;20.010;2023-02-15T22:33:53;4.90;99.90
51175;DHT22;37240;50.104;20.010;2023-02-15T22:38:54;4.90;99.90
51175;DHT22;37240;50.104;20.010;2023-02-15T22:43:55;4.90;99.90
51175;DHT22;37240;50.104;20.010;2023-02-15T22:48:56;4.90;99.90
51175;DHT22;37240;50.104;20.010;2023-02-15T22:53:56;4.80;99.90
51175;DHT22;37240;50.104;20.010;2023-02-15T22:59:02;4.70;99.90
51175;DHT22;37240;50.104;20.010;2023-02-15T23:04:04;4.70;99.90
51175;DHT22;37240;50.104;20.010;2023-02-15T23:09:04;4.70;99.90
51175;DHT22;37240;50.104;20.010;2023-02-15T23:14:05;4.60;99.90
51175;DHT22;37240;50.104;20.010;2023-02-15T23:19:10;4.60;99.90
51175;DHT22;37240;50.104;20.010;2023-02-15T23:24:28;4.60;99.90
51175;DHT22;37240;50.104;20.010;2023-02-15T23:29:29;4.60;99.90
51175;DHT22;37240;50.104;20.010;2023-02-15T23:34:30;4.60;99.90
51175;DHT22;37240;50.104;20.010;2023-02-15T23:39:30;4.50;99.90
51175;DHT22;37240;50.104;20.010;2023-02-15T23:44:31;4.50;99.90
51175;DHT22;37240;50.104;20.010;2023-02-15T23:49:32;4.50;99.90
51175;DHT22;37240;50.104;20.010;2023-02-15T23:54:32;4.50;99.90
51175;DHT22;37240;50.104;20.010;2023-02-15T23:59:34;4.50;99.90
